Time;durP1;ratioP1;P1;durP2;ratioP2;P2;SDS_P1;SDS_P2;PMS_P1;PMS_P2;Temp;Humidity;BMP_temperature;BMP_pressure;BME280_temperature;BME280_humidity;BME280_pressure;Samples;Min_cycle;Max_cycle;Signal;HPM_P1;HPM_P2
2021/06/26 00:01:28;;;;;;;12.93;7.40;;;;;;;24.12;40.73;101444.00;5055301;28;20456;-45
2021/06/26 00:03:56;;;;;;;14.37;8.23;;;;;;;24.13;40.51;101437.84;5055051;28;20904;-47
2021/06/26 00:06:24;;;;;;;10.00;7.47;;;;;;;24.21;40.37;101432.56;5055090;28;20472;-47
2021/06/26 00:08:52;;;;;;;15.60;10.17;;;;;;;24.29;40.44;101435.16;5054673;28;20458;-46
2021/06/26 00:11:20;;;;;;;11.40;7.67;;;;;;;24.39;40.00;101429.84;5059007;28;20457;-45
2021/06/26 00:13:47;;;;;;;13.20;7.90;;;;;;;24.28;40.36;101434.28;5064489;28;20592;-46
2021/06/26 00:16:16;;;;;;;17.20;8.47;;;;;;;24.34;39.96;101428.09;5058751;28;21025;-46
2021/06/26 00:18:44;;;;;;;14.10;7.90;;;;;;;24.26;40.49;101428.16;5049219;28;20488;-47
2021/06/26 00:21:12;;;;;;;12.50;8.27;;;;;;;24.19;40.87;101439.59;5059097;28;20912;-49
2021/06/26 00:23:39;;;;;;;9.87;7.23;;;;;;;24.18;40.95;101432.56;5064266;28;20773;-44
2021/06/26 00:26:16;;;;;;;15.40;9.43;;;;;;;24.11;41.17;101437.84;5058828;28;20852;-48
2021/06/26 00:28:44;;;;;;;15.77;11.27;;;;;;;23.92;42.17;101436.13;5057300;28;20485;-45
2021/06/26 00:31:12;;;;;;;13.07;8.00;;;;;;;23.87;42.06;101441.44;5059074;28;20464;-45
2021/06/26 00:33:41;;;;;;;17.63;11.07;;;;;;;24.00;41.82;101437.00;5064138;28;20539;-45
2021/06/26 00:36:09;;;;;;;15.93;11.13;;;;;;;24.08;41.95;101432.63;5058640;28;20469;-44
2021/06/26 00:38:37;;;;;;;14.60;10.17;;;;;;;23.92;42.56;101438.78;5057387;28;20485;-45
2021/06/26 00:41:05;;;;;;;14.40;10.33;;;;;;;23.75;42.59;101439.72;5058628;28;20456;-46
2021/06/26 00:43:32;;;;;;;14.50;9.90;;;;;;;23.73;42.84;101436.19;5063112;28;20556;-45
2021/06/26 00:46:01;;;;;;;13.80;8.70;;;;;;;23.59;43.08;101428.34;5058515;28;20468;-47
2021/06/26 00:48:29;;;;;;;12.60;9.30;;;;;;;23.26;43.89;101436.25;5057648;28;20566;-45
2021/06/26 00:50:58;;;;;;;13.70;10.00;;;;;;;23.37;43.87;101440.66;5058409;28;20471;-47
2021/06/26 00:53:25;;;;;;;13.33;10.20;;;;;;;23.63;43.51;101439.75;5049747;28;20485;-47
2021/06/26 00:55:53;;;;;;;15.00;10.03;;;;;;;23.95;42.57;101439.63;5058163;28;20774;-47
2021/06/26 00:58:22;;;;;;;12.77;9.13;;;;;;;24.05;42.54;101429.94;5057051;28;20940;-45
2021/06/26 01:00:50;;;;;;;13.33;9.40;;;;;;;24.06;42.43;101439.63;5058225;28;20487;-45
2021/06/26 01:03:43;;;;;;;14.20;9.40;;;;;;;24.12;42.31;101436.09;5057033;28;20505;-46
2021/06/26 01:06:12;;;;;;;14.97;9.03;;;;;;;24.27;41.90;101427.25;5056014;28;20465;-45
2021/06/26 01:08:40;;;;;;;13.13;9.10;;;;;;;24.09;42.62;101428.22;5062055;28;20483;-49
2021/06/26 01:11:07;;;;;;;12.77;8.03;;;;;;;24.03;42.76;101434.34;5058232;28;20458;-45
2021/06/26 01:13:35;;;;;;;15.10;9.63;;;;;;;23.93;42.97;101427.38;5051393;28;20492;-47
2021/06/26 01:16:02;;;;;;;12.27;9.00;;;;;;;23.24;45.24;101419.59;5057797;28;20459;-45
2021/06/26 01:18:30;;;;;;;14.63;8.20;;;;;;;23.20;44.62;101420.44;5048579;28;20567;-47
2021/06/26 01:20:58;;;;;;;13.53;9.10;;;;;;;23.19;44.86;101424.81;5057416;28;20494;-45
2021/06/26 01:23:27;;;;;;;12.50;9.10;;;;;;;23.46;43.89;101416.94;5061762;28;20488;-44
2021/06/26 01:25:54;;;;;;;15.57;10.53;;;;;;;23.69;43.49;101429.19;5057695;28;20773;-46
2021/06/26 01:28:22;;;;;;;14.50;9.40;;;;;;;23.83;43.12;101429.13;5061721;28;20510;-48
2021/06/26 01:30:49;;;;;;;15.30;9.27;;;;;;;23.64;43.52;101433.59;5057755;28;20473;-46
2021/06/26 01:33:17;;;;;;;14.50;9.37;;;;;;;22.97;45.19;101431.84;5056083;28;20483;-46
2021/06/26 01:35:45;;;;;;;16.23;10.37;;;;;;;23.18;44.91;101432.75;5057047;28;20782;-45
2021/06/26 01:38:12;;;;;;;21.60;13.40;;;;;;;23.51;44.27;101430.97;5056334;28;20803;-46
2021/06/26 01:40:41;;;;;;;20.40;13.50;;;;;;;23.71;43.97;101432.69;5057331;28;20927;-44
2021/06/26 01:43:12;;;;;;;19.03;12.60;;;;;;;23.34;44.30;101423.13;5056457;28;20492;-48
2021/06/26 01:45:40;;;;;;;16.30;10.63;;;;;;;23.54;43.97;101425.69;5057146;28;20462;-44
2021/06/26 01:48:08;;;;;;;14.97;11.10;;;;;;;23.66;43.75;101423.94;5056216;28;20478;-45
2021/06/26 01:50:36;;;;;;;16.47;11.40;;;;;;;23.62;43.49;101428.31;5057218;28;20479;-46
2021/06/26 01:53:05;;;;;;;13.97;9.80;;;;;;;23.47;44.11;101423.97;5056052;28;20525;-46
2021/06/26 01:55:32;;;;;;;13.80;10.37;;;;;;;23.70;43.43;101425.69;5057107;28;20462;-46
2021/06/26 01:58:01;;;;;;;14.70;9.73;;;;;;;23.13;44.92;101429.22;5055879;28;20489;-48
2021/06/26 02:00:29;;;;;;;14.07;9.63;;;;;;;22.86;45.23;101426.56;5057142;28;20483;-48
2021/06/26 02:02:57;;;;;;;18.60;10.63;;;;;;;22.41;47.05;101423.84;5055942;28;20789;-46
2021/06/26 02:05:24;;;;;;;14.90;9.70;;;;;;;22.72;46.08;101421.28;5056920;28;20456;-46
2021/06/26 02:07:52;;;;;;;14.30;9.43;;;;;;;22.53;46.42;101423.03;5055800;28;20490;-46
2021/06/26 02:10:21;;;;;;;16.73;10.10;;;;;;;22.52;46.47;101416.88;5056964;28;20957;-45
2021/06/26 02:12:49;;;;;;;16.80;9.80;;;;;;;22.96;45.64;101421.34;5055607;28;20482;-46
2021/06/26 02:15:18;;;;;;;14.70;10.40;;;;;;;23.16;45.35;101418.69;5056934;28;20885;-50
2021/06/26 02:17:45;;;;;;;22.20;15.03;;;;;;;23.20;45.21;101423.97;5050610;28;20492;-47
2021/06/26 02:20:13;;;;;;;21.40;14.40;;;;;;;23.41;44.36;101422.22;5062071;28;20575;-48
2021/06/26 02:22:42;;;;;;;19.83;12.50;;;;;;;23.56;43.93;101428.34;5055141;28;20753;-45
2021/06/26 02:25:11;;;;;;;16.60;12.10;;;;;;;23.39;44.28;101425.72;5056683;28;20459;-48
2021/06/26 02:27:39;;;;;;;18.10;9.90;;;;;;;23.35;44.34;101422.22;5047885;28;20486;-47
2021/06/26 02:30:08;;;;;;;24.80;12.97;;;;;;;23.53;43.95;101418.69;5056530;28;20475;-46
2021/06/26 02:32:38;;;;;;;20.50;14.13;;;;;;;23.62;43.92;101428.31;5051532;28;20767;-45
2021/06/26 02:35:07;;;;;;;13.77;10.07;;;;;;;23.15;44.87;101430.09;5062683;28;20456;-46
2021/06/26 02:37:34;;;;;;;18.60;10.37;;;;;;;23.15;44.93;101427.47;5046633;28;20944;-45
2021/06/26 02:40:02;;;;;;;12.43;9.53;;;;;;;23.12;44.93;101427.47;5056264;28;20487;-48
2021/06/26 02:42:30;;;;;;;14.40;9.93;;;;;;;22.94;45.39;101429.22;5053539;28;20486;-46
2021/06/26 02:44:57;;;;;;;13.20;9.67;;;;;;;22.46;46.62;101421.22;5063357;28;20676;-50
2021/06/26 02:47:25;;;;;;;15.47;9.40;;;;;;;22.62;46.55;101430.91;5051591;28;20483;-45
2021/06/26 02:49:53;;;;;;;17.23;10.70;;;;;;;23.13;45.15;101434.50;5063877;28;20923;-48
2021/06/26 02:52:21;;;;;;;15.53;11.30;;;;;;;23.24;44.84;101427.47;5054864;28;20955;-44
2021/06/26 02:54:49;;;;;;;16.80;11.10;;;;;;;23.10;44.83;101429.22;5056171;28;20459;-48
2021/06/26 02:57:17;;;;;;;11.80;9.03;;;;;;;23.25;44.65;101430.97;5054358;28;20490;-47
2021/06/26 02:59:46;;;;;;;18.40;11.10;;;;;;;23.53;44.13;101429.22;5056047;28;20484;-45
2021/06/26 03:02:14;;;;;;;19.30;13.60;;;;;;;23.51;43.88;101425.72;5055193;28;20504;-45
2021/06/26 03:04:41;;;;;;;17.07;11.87;;;;;;;23.47;44.21;101434.50;5056023;28;20462;-45
2021/06/26 03:07:10;;;;;;;17.00;11.23;;;;;;;23.37;44.12;101432.75;5050297;28;20565;-47
2021/06/26 03:09:38;;;;;;;15.87;9.70;;;;;;;23.29;44.91;101435.38;5065641;28;20773;-45
2021/06/26 03:12:07;;;;;;;15.40;10.63;;;;;;;23.37;44.67;101435.41;5050550;28;20486;-47
2021/06/26 03:14:34;;;;;;;16.83;11.27;;;;;;;23.47;44.61;101439.75;5066100;28;20464;-47
2021/06/26 03:17:02;;;;;;;15.97;9.97;;;;;;;22.95;45.78;101446.75;5054244;28;20486;-47
2021/06/26 03:19:29;;;;;;;15.37;11.00;;;;;;;22.68;46.63;101448.47;5055560;28;20485;-48
2021/06/26 03:21:57;;;;;;;15.47;11.17;;;;;;;22.61;46.87;101451.97;5054667;28;20476;-45
2021/06/26 03:24:27;;;;;;;13.33;9.47;;;;;;;22.50;46.97;101449.25;5055483;28;20939;-43
2021/06/26 03:26:55;;;;;;;11.97;9.43;;;;;;;22.61;46.80;101449.34;5054019;28;20477;-46
2021/06/26 03:29:24;;;;;;;13.23;9.57;;;;;;;22.77;46.58;101448.47;5055719;28;21280;-46
2021/06/26 03:31:52;;;;;;;13.80;10.00;;;;;;;22.44;47.25;101443.97;5054358;28;20462;-47
2021/06/26 03:34:20;;;;;;;13.53;9.87;;;;;;;22.82;46.70;101447.63;5055620;28;20954;-47
2021/06/26 03:36:47;;;;;;;13.80;9.60;;;;;;;23.10;45.70;101448.53;5053938;28;20473;-45
2021/06/26 03:39:15;;;;;;;13.00;9.83;;;;;;;22.92;46.51;101459.91;5055408;28;20487;-48
2021/06/26 03:41:44;;;;;;;15.70;9.50;;;;;;;22.91;46.54;101460.78;5054168;28;20466;-49
2021/06/26 03:44:11;;;;;;;14.93;9.50;;;;;;;22.97;46.06;101463.41;5055034;28;20465;-45
2021/06/26 03:46:39;;;;;;;17.33;11.90;;;;;;;23.14;45.96;101467.81;5052847;28;20462;-45
2021/06/26 03:49:07;;;;;;;15.27;10.50;;;;;;;23.18;46.01;101473.06;5055264;28;20482;-46
2021/06/26 03:51:34;;;;;;;14.10;10.00;;;;;;;23.44;45.11;101471.38;5054342;28;20476;-44
2021/06/26 03:54:02;;;;;;;13.90;9.80;;;;;;;23.47;45.02;101476.63;5055151;28;20485;-47
2021/06/26 03:56:30;;;;;;;15.93;9.10;;;;;;;23.35;45.29;101476.63;5046626;28;20459;-46
2021/06/26 03:59:00;;;;;;;13.50;9.00;;;;;;;23.22;46.26;101476.59;5054795;28;20489;-48
2021/06/26 04:01:28;;;;;;;19.37;10.20;;;;;;;23.50;45.26;101471.38;5054554;28;20967;-46
2021/06/26 04:03:55;;;;;;;12.67;9.40;;;;;;;23.26;46.05;101473.09;5055256;28;20766;-44
2021/06/26 04:06:23;;;;;;;16.77;10.80;;;;;;;23.55;45.28;101474.88;5055049;28;20460;-46
2021/06/26 04:08:51;;;;;;;14.70;10.67;;;;;;;23.70;44.78;101473.09;5054686;28;20803;-47
2021/06/26 04:11:18;;;;;;;19.20;10.70;;;;;;;23.87;44.35;101463.41;5055128;28;20460;-47
2021/06/26 04:13:46;;;;;;;13.17;9.87;;;;;;;24.04;43.87;101470.34;5051449;28;20486;-45
2021/06/26 04:16:15;;;;;;;16.13;11.47;;;;;;;24.25;43.86;101471.22;5055072;28;20455;-47
2021/06/26 04:18:43;;;;;;;14.37;10.30;;;;;;;24.03;44.06;101473.88;5051900;28;20478;-46
2021/06/26 04:21:10;;;;;;;17.10;11.70;;;;;;;24.06;44.13;101463.34;5054867;28;20493;-46
2021/06/26 04:23:38;;;;;;;16.00;10.87;;;;;;;24.00;44.67;101463.38;5053889;28;20480;-45
2021/06/26 04:26:05;;;;;;;15.00;10.80;;;;;;;24.01;44.12;101463.34;5054267;28;20905;-45
2021/06/26 04:28:33;;;;;;;17.20;11.07;;;;;;;23.87;44.88;101466.03;5050643;28;20491;-47
2021/06/26 04:31:01;;;;;;;14.70;10.97;;;;;;;24.03;44.41;101465.13;5054905;28;20475;-46
2021/06/26 04:33:30;;;;;;;19.93;11.03;;;;;;;24.05;44.48;101464.19;5050034;28;20499;-45
2021/06/26 04:35:57;;;;;;;15.83;11.27;;;;;;;24.16;44.25;101468.59;5054551;28;20473;-46
2021/06/26 04:38:25;;;;;;;17.83;13.03;;;;;;;24.21;44.45;101469.47;5049639;28;20472;-49
2021/06/26 04:40:54;;;;;;;21.67;12.80;;;;;;;24.08;44.51;101468.63;5054887;28;20514;-46
2021/06/26 04:43:23;;;;;;;17.30;12.47;;;;;;;23.84;45.22;101480.97;5050608;28;20481;-44
2021/06/26 04:45:50;;;;;;;21.90;15.30;;;;;;;24.14;44.46;101477.41;5054578;28;20460;-45
2021/06/26 04:48:19;;;;;;;19.80;12.50;;;;;;;24.23;44.21;101478.22;5049156;28;20532;-47
2021/06/26 04:50:48;;;;;;;20.43;13.50;;;;;;;24.47;43.97;101477.25;5054644;28;20919;-46
2021/06/26 04:53:16;;;;;;;21.83;15.07;;;;;;;24.24;44.63;101479.97;5053419;28;20484;-45
2021/06/26 04:55:51;;;;;;;49.20;32.37;;;;;;;24.37;44.12;101476.44;5054716;28;20459;-45
2021/06/26 04:58:19;;;;;;;117.60;71.53;;;;;;;24.58;43.57;101485.13;5056995;28;20482;-47
2021/06/26 05:00:50;;;;;;;94.57;60.83;;;;;;;24.70;43.45;101484.16;5058251;28;20562;-48
2021/06/26 05:03:18;;;;;;;18.63;13.60;;;;;;;24.62;43.43;101481.56;5057126;28;20863;-46
2021/06/26 05:05:46;;;;;;;17.57;13.07;;;;;;;24.53;43.69;101486.88;5057906;28;20453;-47
2021/06/26 05:08:16;;;;;;;18.87;12.70;;;;;;;24.43;43.56;101485.16;5057063;28;20483;-45
2021/06/26 05:10:43;;;;;;;16.13;11.67;;;;;;;24.48;43.49;101483.41;5058261;28;20474;-47
2021/06/26 05:13:11;;;;;;;21.57;10.93;;;;;;;24.51;43.58;101480.75;5056489;28;20562;-48
2021/06/26 05:15:40;;;;;;;23.93;14.77;;;;;;;24.22;44.38;101482.66;5057904;28;20462;-46
2021/06/26 05:18:08;;;;;;;20.57;13.70;;;;;;;24.06;44.55;101480.91;5056885;28;20496;-45
2021/06/26 05:20:36;;;;;;;17.50;11.40;;;;;;;23.73;45.11;101483.59;5058165;28;20483;-47
2021/06/26 05:23:10;;;;;;;19.97;13.20;;;;;;;24.10;44.51;101493.22;5056668;28;20488;-49
2021/06/26 05:25:39;;;;;;;17.97;10.80;;;;;;;24.42;43.42;101494.88;5057727;28;20458;-48
2021/06/26 05:28:07;;;;;;;16.30;11.10;;;;;;;24.48;43.57;101488.66;5056502;28;20494;-45
2021/06/26 05:30:34;;;;;;;15.30;10.03;;;;;;;24.38;44.18;101494.00;5057681;28;20480;-46
2021/06/26 05:33:04;;;;;;;20.47;12.60;;;;;;;24.54;43.88;101493.91;5056406;28;20478;-47
2021/06/26 05:35:31;;;;;;;14.77;10.40;;;;;;;24.49;43.72;101495.69;5057142;28;20480;-46
2021/06/26 05:37:59;;;;;;;14.70;10.27;;;;;;;24.50;43.30;101497.47;5056749;28;20482;-45
2021/06/26 05:40:26;;;;;;;13.20;9.70;;;;;;;24.66;43.69;101499.13;5057567;28;20493;-48
2021/06/26 05:42:56;;;;;;;12.17;9.83;;;;;;;24.97;43.06;101503.34;5056286;28;20916;-47
2021/06/26 05:45:24;;;;;;;15.53;10.27;;;;;;;25.42;41.79;101503.03;5057205;28;20779;-48
2021/06/26 05:47:51;;;;;;;51.37;30.50;;;;;;;25.64;41.40;101505.53;5056431;28;20484;-46
2021/06/26 05:50:19;;;;;;;37.40;21.10;;;;;;;25.83;40.63;101507.97;5057482;28;20479;-51
2021/06/26 05:52:48;;;;;;;76.27;39.87;;;;;;;25.86;41.17;101507.94;5056189;28;20486;-47
2021/06/26 05:55:16;;;;;;;31.13;18.73;;;;;;;26.03;40.23;101502.47;5057336;28;20466;-50
2021/06/26 05:57:43;;;;;;;14.57;9.20;;;;;;;26.05;39.13;101515.66;5046860;28;20478;-47
2021/06/26 06:00:14;;;;;;;10.90;7.17;;;;;;;26.21;38.90;101509.31;5057384;28;20870;-48
2021/06/26 06:02:42;;;;;;;9.40;7.50;;;;;;;26.44;38.21;101505.53;5055668;28;20493;-48
2021/06/26 06:05:12;;;;;;;46.27;32.93;;;;;;;26.46;38.35;101500.22;5062618;28;20464;-47
2021/06/26 06:07:40;;;;;;;18.20;12.17;;;;;;;26.53;38.43;101502.78;5046394;28;20487;-47
2021/06/26 06:10:10;;;;;;;14.10;9.40;;;;;;;26.56;38.03;101501.88;5056450;28;20983;-46
2021/06/26 06:12:38;;;;;;;16.73;12.07;;;;;;;26.53;37.59;101505.44;5051370;28;20782;-46
2021/06/26 06:15:08;;;;;;;30.90;16.73;;;;;;;26.81;36.47;101507.66;5053013;28;20462;-46
2021/06/26 06:17:37;;;;;;;29.53;19.53;;;;;;;26.72;36.59;101505.16;5064071;28;20483;-46
2021/06/26 06:20:06;;;;;;;28.40;16.17;;;;;;;26.33;36.40;101510.06;5056916;28;20488;-45
2021/06/26 06:22:34;;;;;;;27.50;18.37;;;;;;;26.72;36.76;101513.09;5053218;28;20481;-50
2021/06/26 06:25:05;;;;;;;13.30;9.10;;;;;;;26.59;36.70;101516.81;5054594;28;20482;-46
2021/06/26 06:27:36;;;;;;;17.00;9.40;;;;;;;26.66;37.23;101511.41;5054193;28;20812;-45
2021/06/26 06:30:04;;;;;;;11.93;7.43;;;;;;;26.69;37.43;101518.44;5056146;28;20501;-45
2021/06/26 06:32:32;;;;;;;9.30;6.67;;;;;;;26.72;37.10;101521.03;5055259;28;20830;-46
2021/06/26 06:35:01;;;;;;;12.47;7.33;;;;;;;26.59;37.37;101520.31;5055929;28;20753;-44
2021/06/26 06:37:29;;;;;;;11.57;6.53;;;;;;;26.73;36.89;101524.56;5054271;28;20488;-44
2021/06/26 06:39:56;;;;;;;15.07;6.90;;;;;;;26.58;36.36;101520.34;5055709;28;20493;-45
2021/06/26 06:42:24;;;;;;;15.53;6.80;;;;;;;26.63;35.96;101516.75;5054191;28;20486;-46
2021/06/26 06:44:51;;;;;;;11.77;7.53;;;;;;;26.68;36.61;101521.97;5055751;28;20452;-46
2021/06/26 06:47:19;;;;;;;66.07;43.83;;;;;;;27.30;36.34;101513.13;5053899;28;20482;-44
2021/06/26 06:49:46;;;;;;;13.17;8.90;;;;;;;27.30;36.88;101525.50;5055362;28;20505;-46
2021/06/26 06:52:15;;;;;;;16.70;10.60;;;;;;;27.33;36.46;101518.38;5056184;28;20814;-45
2021/06/26 06:54:43;;;;;;;18.90;12.40;;;;;;;27.74;35.26;101523.03;5055525;28;20466;-46
2021/06/26 06:57:10;;;;;;;19.90;12.43;;;;;;;28.09;35.65;101524.09;5053228;28;20475;-47
2021/06/26 06:59:38;;;;;;;25.20;16.50;;;;;;;28.16;36.03;101528.38;5055480;28;20480;-47
2021/06/26 07:02:06;;;;;;;9.60;5.00;;;;;;;28.26;34.83;101530.88;5046744;28;20483;-45
2021/06/26 07:04:34;;;;;;;19.63;11.30;;;;;;;28.18;33.97;101525.69;5055300;28;20456;-46
2021/06/26 07:07:01;;;;;;;13.13;8.53;;;;;;;28.32;33.88;101529.88;5053701;28;20474;-46
2021/06/26 07:09:31;;;;;;;18.60;13.20;;;;;;;28.39;33.52;101539.44;5055238;28;20476;-46
2021/06/26 07:11:59;;;;;;;20.37;12.53;;;;;;;28.44;33.83;101527.84;5054084;28;20472;-45
2021/06/26 07:14:27;;;;;;;14.20;8.20;;;;;;;28.31;33.79;101531.69;5057701;28;20471;-46
2021/06/26 07:16:54;;;;;;;13.00;8.97;;;;;;;28.15;34.60;101534.59;5053365;28;20780;-44
2021/06/26 07:19:22;;;;;;;20.37;11.20;;;;;;;28.20;34.88;101534.53;5054598;28;20483;-45
2021/06/26 07:21:49;;;;;;;18.83;11.80;;;;;;;28.30;34.62;101543.19;5053918;28;20485;-45
2021/06/26 07:24:17;;;;;;;32.17;18.03;;;;;;;28.01;34.88;101539.31;5054926;28;20466;-46
2021/06/26 07:26:46;;;;;;;25.73;13.57;;;;;;;28.44;33.62;101537.59;5048991;28;20471;-45
2021/06/26 07:29:16;;;;;;;15.47;11.40;;;;;;;28.58;34.01;101534.63;5052065;28;20471;-45
2021/06/26 07:31:44;;;;;;;12.33;8.77;;;;;;;28.27;35.64;101540.59;5052931;28;20481;-49
2021/06/26 07:34:11;;;;;;;34.53;17.33;;;;;;;28.36;33.52;101539.53;5054608;28;20558;-46
2021/06/26 07:36:39;;;;;;;22.60;14.80;;;;;;;28.19;34.14;101540.69;5046377;28;20793;-45
2021/06/26 07:39:08;;;;;;;20.60;12.03;;;;;;;28.42;33.81;101539.41;5054618;28;20566;-47
2021/06/26 07:41:36;;;;;;;20.80;11.70;;;;;;;27.96;34.02;101530.56;5034156;28;20791;-46
2021/06/26 07:44:05;;;;;;;76.17;26.20;;;;;;;28.25;33.69;101539.75;5061661;28;20526;-47
2021/06/26 07:46:33;;;;;;;15.30;9.40;;;;;;;28.07;35.11;101540.94;5044710;28;20460;-45
2021/06/26 07:49:00;;;;;;;11.20;7.80;;;;;;;27.85;35.87;101536.97;5068832;28;20483;-48
2021/06/26 07:51:28;;;;;;;23.83;14.37;;;;;;;27.55;34.84;101531.25;5053699;28;20455;-45
2021/06/26 07:53:56;;;;;;;20.03;13.03;;;;;;;27.95;34.12;101534.13;5054476;28;20475;-47
2021/06/26 07:56:25;;;;;;;18.80;12.07;;;;;;;28.07;33.87;101527.69;5053936;28;20566;-52
2021/06/26 07:58:53;;;;;;;21.23;12.77;;;;;;;28.54;33.53;101538.25;5052055;28;20974;-48
2021/06/26 08:01:24;;;;;;;15.87;10.83;;;;;;;28.40;35.16;101538.56;5054332;28;20456;-47
2021/06/26 08:03:52;;;;;;;15.37;9.40;;;;;;;28.38;35.34;101533.28;5053983;28;20460;-46
2021/06/26 08:06:19;;;;;;;12.60;9.00;;;;;;;28.87;34.71;101530.50;5054266;28;20519;-46
2021/06/26 08:08:47;;;;;;;18.23;11.13;;;;;;;29.28;34.04;101532.19;5053313;28;20476;-48
2021/06/26 08:11:14;;;;;;;30.57;14.23;;;;;;;29.30;32.83;101533.91;5054219;28;20467;-48
2021/06/26 08:13:42;;;;;;;17.40;12.63;;;;;;;29.18;32.74;101519.16;5050078;28;20483;-46
2021/06/26 08:16:09;;;;;;;19.03;14.23;;;;;;;29.05;33.81;101523.88;5054325;28;20466;-46
2021/06/26 08:18:38;;;;;;;20.00;12.77;;;;;;;29.31;33.08;101518.81;5051099;28;20620;-45
2021/06/26 08:21:06;;;;;;;17.00;12.37;;;;;;;29.17;33.69;101521.84;5054369;28;20455;-46
2021/06/26 08:23:34;;;;;;;17.40;12.10;;;;;;;29.02;33.86;101518.63;5044043;28;20476;-47
2021/06/26 08:26:01;;;;;;;18.40;12.60;;;;;;;28.89;33.61;101512.75;5054162;28;20464;-49
2021/06/26 08:28:29;;;;;;;18.70;12.20;;;;;;;28.74;34.80;101521.91;5059177;28;20532;-44
2021/06/26 08:30:56;;;;;;;28.63;16.67;;;;;;;28.48;34.11;101522.47;5052837;28;20486;-45
2021/06/26 08:33:24;;;;;;;26.47;15.90;;;;;;;28.35;34.71;101521.88;5056976;28;20471;-47
2021/06/26 08:35:53;;;;;;;75.17;31.60;;;;;;;28.73;33.80;101521.94;5057757;28;20825;-46
2021/06/26 08:38:21;;;;;;;44.37;30.40;;;;;;;29.12;33.60;101519.31;5056885;28;20478;-48
2021/06/26 08:40:54;;;;;;;27.07;17.27;;;;;;;28.90;34.80;101522.44;5058130;28;20479;-46
2021/06/26 08:43:21;;;;;;;19.90;12.60;;;;;;;29.12;34.67;101519.31;5054150;28;20944;-45
2021/06/26 08:45:49;;;;;;;22.63;14.07;;;;;;;29.11;34.20;101522.84;5057703;28;20466;-46
2021/06/26 08:48:17;;;;;;;22.00;13.83;;;;;;;29.31;34.26;101527.66;5053914;28;20479;-45
2021/06/26 08:50:46;;;;;;;22.77;16.30;;;;;;;29.24;34.61;101524.31;5057718;28;20793;-50
2021/06/26 08:53:15;;;;;;;24.27;16.53;;;;;;;28.92;34.76;101522.44;5056195;28;20474;-45
2021/06/26 08:55:42;;;;;;;41.97;19.97;;;;;;;29.47;33.26;101525.53;5057351;28;20558;-45
2021/06/26 08:58:10;;;;;;;53.17;25.10;;;;;;;29.62;33.55;101528.69;5056402;28;20483;-45
2021/06/26 09:00:37;;;;;;;24.63;16.97;;;;;;;29.49;33.18;101525.50;5055405;28;20486;-45
2021/06/26 09:03:10;;;;;;;32.10;20.20;;;;;;;29.19;33.88;101520.91;5056089;28;20482;-46
2021/06/26 09:05:38;;;;;;;30.90;20.27;;;;;;;29.39;33.40;101524.81;5054729;28;20456;-47
2021/06/26 09:08:10;;;;;;;85.20;31.30;;;;;;;29.80;33.25;101526.47;5051269;28;20467;-44
2021/06/26 09:10:40;;;;;;;19.70;14.20;;;;;;;29.48;34.87;101524.59;5054786;28;20471;-46
2021/06/26 09:13:13;;;;;;;22.77;14.27;;;;;;;29.00;36.01;101525.75;5058200;28;20479;-45
2021/06/26 09:15:41;;;;;;;24.80;16.43;;;;;;;28.79;35.17;101530.63;5037623;28;20487;-46
2021/06/26 09:18:14;;;;;;;24.40;14.77;;;;;;;29.60;34.78;101522.56;5041329;28;20487;-47
2021/06/26 09:20:44;;;;;;;34.80;20.90;;;;;;;29.60;35.28;101525.22;5050932;28;20479;-48
2021/06/26 09:23:28;;;;;;;22.67;14.97;;;;;;;29.59;35.35;101523.47;5056443;28;20494;-46
2021/06/26 09:26:08;;;;;;;27.40;17.53;;;;;;;30.20;33.13;101521.84;5057173;28;20907;-47
2021/06/26 09:28:36;;;;;;;29.37;18.90;;;;;;;30.08;34.51;101533.69;5056035;28;20479;-46
2021/06/26 09:31:04;;;;;;;24.70;16.57;;;;;;;29.80;33.69;101534.44;5057756;28;20475;-45
2021/06/26 09:33:32;;;;;;;26.60;18.00;;;;;;;29.95;33.43;101530.47;5056009;28;20488;-46
2021/06/26 09:36:03;;;;;;;31.03;18.40;;;;;;;30.10;32.72;101530.09;5056535;28;20472;-44
2021/06/26 09:38:32;;;;;;;26.80;16.80;;;;;;;29.70;33.42;101526.72;5056047;28;20921;-47
2021/06/26 09:41:11;;;;;;;33.33;20.27;;;;;;;29.06;34.96;101524.75;5057662;28;20791;-47
2021/06/26 09:43:40;;;;;;;23.47;16.23;;;;;;;29.01;34.87;101521.34;5055204;28;20490;-46
2021/06/26 09:46:10;;;;;;;22.47;16.60;;;;;;;29.27;34.58;101520.69;5057343;28;20459;-46
2021/06/26 09:48:51;;;;;;;32.27;19.87;;;;;;;29.76;33.61;101531.88;5055260;28;20487;-47
2021/06/26 09:51:23;;;;;;;39.43;27.00;;;;;;;29.66;34.27;101533.03;5057513;28;20462;-46
2021/06/26 09:53:55;;;;;;;24.23;17.00;;;;;;;29.70;33.29;101529.38;5057047;28;20467;-46
2021/06/26 09:56:22;;;;;;;19.73;13.90;;;;;;;29.10;35.52;101526.41;5057127;28;20467;-48
2021/06/26 09:58:54;;;;;;;23.40;17.37;;;;;;;29.04;34.38;101527.44;5056803;28;20487;-47
2021/06/26 10:01:21;;;;;;;33.87;23.03;;;;;;;29.69;34.69;101530.28;5057026;28;20459;-45
2021/06/26 10:03:50;;;;;;;22.70;16.00;;;;;;;29.42;33.74;101527.38;5056783;28;20487;-46
2021/06/26 10:06:20;;;;;;;21.20;14.93;;;;;;;29.94;33.23;101529.59;5056985;28;20448;-45
2021/06/26 10:08:47;;;;;;;27.53;16.77;;;;;;;29.64;34.70;101534.84;5055651;28;20494;-45
2021/06/26 10:11:15;;;;;;;22.73;15.50;;;;;;;29.43;33.68;101529.13;5056595;28;20469;-48
2021/06/26 10:13:43;;;;;;;23.33;14.80;;;;;;;29.76;34.04;101529.22;5055379;28;20555;-49
2021/06/26 10:16:12;;;;;;;19.60;13.50;;;;;;;30.34;32.88;101526.78;5056415;28;20460;-48
2021/06/26 10:18:40;;;;;;;26.40;16.73;;;;;;;30.25;33.16;101528.75;5055078;28;20855;-49
2021/06/26 10:21:08;;;;;;;22.07;13.57;;;;;;;30.22;34.57;101528.88;5056790;28;20806;-44
2021/06/26 10:23:37;;;;;;;21.93;14.10;;;;;;;30.43;32.56;101529.13;5055274;28;20483;-47
2021/06/26 10:26:04;;;;;;;22.43;14.80;;;;;;;30.34;32.84;101524.97;5056395;28;20466;-47
2021/06/26 10:28:32;;;;;;;26.63;17.13;;;;;;;30.27;33.67;101526.94;5055190;28;20713;-47
2021/06/26 10:31:01;;;;;;;42.73;30.27;;;;;;;30.33;33.47;101525.03;5056584;28;20788;-47
2021/06/26 10:33:31;;;;;;;142.40;93.53;;;;;;;31.01;31.37;101522.94;5055112;28;20472;-45
2021/06/26 10:36:00;;;;;;;27.70;19.77;;;;;;;30.49;31.85;101520.13;5056168;28;20817;-48
2021/06/26 10:38:39;;;;;;;29.87;21.97;;;;;;;30.48;31.80;101524.56;5055172;28;20474;-45
2021/06/26 10:41:15;;;;;;;32.27;24.10;;;;;;;30.87;32.57;101518.06;5056307;28;20461;-44
2021/06/26 10:43:54;;;;;;;24.50;14.57;;;;;;;30.44;32.23;101518.44;5054984;28;20502;-46
2021/06/26 10:46:22;;;;;;;21.73;14.77;;;;;;;29.42;33.52;101514.09;5056220;28;20451;-49
2021/06/26 10:48:59;;;;;;;20.83;13.97;;;;;;;29.78;33.22;101514.09;5055752;28;20501;-47
2021/06/26 10:51:34;;;;;;;20.10;13.73;;;;;;;29.55;32.68;101519.13;5054975;28;20455;-47
2021/06/26 10:54:12;;;;;;;26.00;16.20;;;;;;;29.91;32.43;101516.41;5055284;28;20479;-47
2021/06/26 10:56:40;;;;;;;19.40;13.63;;;;;;;30.69;31.63;101509.75;5048875;28;20548;-49
2021/06/26 10:59:09;;;;;;;17.03;11.40;;;;;;;30.27;32.04;101510.97;5056040;28;20514;-47
2021/06/26 11:01:37;;;;;;;19.60;13.47;;;;;;;29.81;33.25;101507.81;5052383;28;20761;-44
2021/06/26 11:04:08;;;;;;;18.60;12.53;;;;;;;30.20;33.80;101509.44;5055606;28;20480;-49
2021/06/26 11:06:37;;;;;;;20.93;12.73;;;;;;;30.39;34.63;101519.53;5069001;28;20467;-47
2021/06/26 11:09:07;;;;;;;36.50;18.43;;;;;;;30.95;31.32;101518.69;5057229;28;20529;-45
2021/06/26 11:11:37;;;;;;;16.93;11.70;;;;;;;30.75;32.66;101511.34;5054086;28;20463;-46
2021/06/26 11:14:14;;;;;;;41.47;20.50;;;;;;;31.05;31.21;101510.38;5052680;28;20462;-48
2021/06/26 11:16:43;;;;;;;74.70;27.93;;;;;;;30.93;31.41;101503.69;5053629;28;20462;-45
2021/06/26 11:19:12;;;;;;;27.07;15.97;;;;;;;30.97;31.57;101516.84;5055064;28;20571;-47